createdAt,value
2024-04-01T00:00:45.234Z,69.43467709089892
2024-04-01T00:03:42.807Z,70.4034155659632
2024-04-01T00:06:41.342Z,69.60450192527696
2024-04-01T00:09:38.918Z,71.76488945816747
2024-04-01T00:12:36.469Z,70.3313762055334
2024-04-01T00:15:34.044Z,68.46616062423908
2024-04-01T00:18:31.590Z,68.20474854858512
2024-04-01T00:21:30.151Z,68.38076047867779
2024-04-01T00:24:30.697Z,68.82962310595
2024-04-01T00:27:28.237Z,67.98954863815746
2024-04-01T00:30:25.773Z,65.92201821076955
2024-04-01T00:33:23.423Z,67.452704294675
2024-04-01T00:36:22.886Z,66.88044241057605
2024-04-01T00:39:20.476Z,66.55779298071788
2024-04-01T00:42:18.035Z,67.64919529020393
2024-04-01T00:45:15.572Z,68.04373062372865
2024-04-01T00:48:14.135Z,67.21106689143657
2024-04-01T00:51:11.679Z,68.03673520127553
2024-04-01T00:54:09.220Z,66.82182578886855
2024-04-01T00:57:07.781Z,66.74366658300028
2024-04-01T01:00:08.327Z,66.9902764253428
2024-04-01T01:03:07.875Z,65.86858388044334
2024-04-01T01:06:09.444Z,65.66465706075783
2024-04-01T01:09:07.011Z,64.85932776323817
2024-04-01T01:12:05.539Z,65.68748610798775
2024-04-01T01:15:04.129Z,64.4663520233862
2024-04-01T01:18:01.669Z,65.10728629625513
2024-04-01T01:20:59.212Z,64.54002183940354
2024-04-01T01:23:56.759Z,64.41188936358022
2024-04-01T01:26:56.354Z,64.39596984224403
2024-04-01T01:29:53.859Z,64.72967160179478
2024-04-01T01:32:53.427Z,65.92550057770448
2024-04-01T01:35:53.968Z,66.01441857084934
2024-04-01T01:38:52.524Z,66.76779634205707
2024-04-01T01:41:50.095Z,66.40077508757996
2024-04-01T01:44:47.694Z,67.66534774461314
2024-04-01T01:47:45.215Z,68.87730899034757
2024-04-01T01:50:42.742Z,68.6314149186117
2024-04-01T01:53:43.331Z,68.566865100496
2024-04-01T01:56:40.872Z,67.62571498136279
2024-04-01T01:59:38.420Z,66.96600359083278
2024-04-01T02:02:36.992Z,66.12343281681949
2024-04-01T02:05:35.516Z,66.22586102581585
2024-04-01T02:08:33.100Z,66.01511526641447
2024-04-01T02:11:31.630Z,65.16416135443629
2024-04-01T02:14:30.197Z,63.70635674928353
2024-04-01T02:17:28.762Z,63.74520694354657
2024-04-01T02:20:26.318Z,64.04822191359106
2024-04-01T02:23:24.913Z,63.658009217015476
2024-04-01T02:26:22.419Z,63.57431496712673
2024-04-01T02:29:19.951Z,62.6424355412878
2024-04-01T02:32:17.535Z,62.23309846497598
2024-04-01T02:35:15.080Z,63.20174352141223
2024-04-01T02:38:12.632Z,61.960650573740836
2024-04-01T02:41:11.196Z,61.166925399049525
2024-04-01T02:44:08.762Z,61.46966893686753
2024-04-01T02:47:06.323Z,61.84628182408345
2024-04-01T02:50:03.859Z,62.6373011772198
2024-04-01T02:53:03.424Z,62.0103635516654
2024-04-01T02:56:01.008Z,61.57919693080338
2024-04-01T02:59:03.527Z,61.165614637607
2024-04-01T03:02:01.435Z,61.076432298541334
2024-04-01T03:04:58.653Z,60.40516466514358
2024-04-01T03:07:57.193Z,59.93250611648957
2024-04-01T03:10:58.708Z,60.28185630488772
2024-04-01T03:13:57.341Z,60.6217032739747
2024-04-01T03:16:54.830Z,60.9172030523127
2024-04-01T03:19:52.409Z,60.28020103476214
2024-04-01T03:22:49.959Z,56.34711597480722
2024-04-01T03:25:50.546Z,55.890985991915464
2024-04-01T03:28:48.059Z,54.66355976529059
2024-04-01T03:31:45.650Z,54.23322432696296
2024-04-01T03:34:43.171Z,54.51581324487752
2024-04-01T03:37:41.740Z,54.246910197629674
2024-04-01T03:43:48.817Z,52.73716460720025
2024-04-01T03:46:46.351Z,52.54869682001077
2024-04-01T03:49:43.917Z,52.80927464881124
2024-04-01T03:52:42.482Z,53.33300012865085
2024-04-01T03:55:42.020Z,53.84253629727335
2024-04-01T03:58:39.595Z,54.495313771169776
2024-04-01T04:01:37.168Z,54.32735382457537
2024-04-01T04:04:34.703Z,54.1641630773961
2024-04-01T04:07:32.249Z,55.566445610264154
2024-04-01T04:10:29.792Z,54.47389685542969
2024-04-01T04:13:27.361Z,54.761274320149006
2024-04-01T04:16:24.926Z,54.75747954535241
2024-04-01T04:19:26.502Z,55.06307445940886
2024-04-01T04:22:25.033Z,55.405347799243465
2024-04-01T04:25:23.575Z,53.407216653258
2024-04-01T04:28:21.135Z,54.02539972969419
2024-04-01T04:31:19.686Z,53.45381327780786
2024-04-01T04:34:17.254Z,53.29262916849174
2024-04-01T04:37:16.803Z,52.934565317104585
2024-04-01T04:40:15.347Z,53.77066362918188
2024-04-01T04:43:12.924Z,52.9862594905468
2024-04-01T04:46:13.484Z,51.463052193086156
2024-04-01T04:49:11.043Z,52.56161485526646
2024-04-01T04:52:09.580Z,52.39916682302385
2024-04-01T04:55:07.127Z,52.91836966294512
2024-04-01T04:58:04.689Z,53.392041195548146
2024-04-01T05:01:06.237Z,52.27234498473377
2024-04-01T05:04:05.793Z,53.17942181009954
2024-04-01T05:07:03.351Z,52.05597078596404
2024-04-01T05:10:00.891Z,53.321153360695256
2024-04-01T05:12:59.424Z,52.044835485456815
2024-04-01T05:15:57.194Z,53.021258698654016
2024-04-01T05:18:54.563Z,53.61923815834137
2024-04-01T05:21:52.468Z,55.598685784100276
2024-04-01T05:24:50.687Z,55.07871058406638
2024-04-01T05:27:48.219Z,55.353569283433146
2024-04-01T05:30:47.773Z,54.910523648778174
2024-04-01T05:33:46.324Z,55.895754047250385
2024-04-01T05:36:43.878Z,54.69936963296646
2024-04-01T05:39:41.438Z,54.77342515096419
2024-04-01T05:42:39.001Z,55.77695384131822
2024-04-01T05:45:36.562Z,53.681121089859914
2024-04-01T05:48:34.096Z,54.088156703167094
2024-04-01T05:51:31.667Z,54.32323692377812
2024-04-01T05:54:30.232Z,53.2581763033875
2024-04-01T05:57:27.782Z,53.72439758017494
2024-04-01T06:00:27.350Z,53.79042179405492
2024-04-01T06:03:26.879Z,53.88713061610579
2024-04-01T06:06:24.448Z,52.21683748426177
2024-04-01T06:09:21.996Z,52.88535230907903
2024-04-01T06:12:19.559Z,52.988693202619764
2024-04-01T06:15:17.146Z,53.04699326760789
2024-04-01T06:18:14.666Z,52.90634252277493
2024-04-01T06:21:12.582Z,53.21301733683243
2024-04-01T06:24:10.789Z,53.23905380846916
2024-04-01T06:27:08.357Z,52.452556831124085
2024-04-01T06:30:05.869Z,51.2945699940284
2024-04-01T06:33:03.434Z,51.58072380140626
2024-04-01T06:36:02.332Z,50.75326592414124
2024-04-01T06:38:59.560Z,50.54249734704617
2024-04-01T06:41:57.111Z,50.3225611959993
2024-04-01T06:44:55.660Z,50.34225690483888
2024-04-01T06:47:53.253Z,49.131768587517286
2024-04-01T06:50:50.758Z,48.77709498512659
2024-04-01T06:53:51.340Z,48.88118131306286
2024-04-01T06:56:49.988Z,48.50477308656294
2024-04-01T06:59:47.460Z,48.19995287816763
2024-04-01T07:02:45.021Z,48.236022710412236
2024-04-01T07:05:43.570Z,49.058064314235686
2024-04-01T07:08:41.105Z,48.42178641514698
2024-04-01T07:11:38.663Z,47.681988428945914
2024-04-01T07:14:36.235Z,46.90025180601111
2024-04-01T07:17:34.774Z,46.254375337628794
2024-04-01T07:20:37.641Z,46.15839538337923
2024-04-01T07:23:34.906Z,45.944971447152724
2024-04-01T07:26:32.438Z,45.26326286460916
2024-04-01T07:29:29.964Z,45.28149022381602
2024-04-01T07:32:27.552Z,45.12436339234076
2024-04-01T07:35:25.119Z,44.74789132758283
2024-04-01T07:38:22.662Z,44.823947697800214
2024-04-01T07:41:20.222Z,44.88249165798903
2024-04-01T07:44:17.795Z,44.04328391751064
2024-04-01T07:47:15.344Z,44.43390285075986
2024-04-01T07:50:12.927Z,44.83608624476834
2024-04-01T07:53:11.452Z,44.20966309558425
2024-04-01T07:56:08.998Z,44.40466461723138
2024-04-01T07:59:08.573Z,44.321173519679085
2024-04-01T08:02:07.090Z,43.818203888950926
2024-04-01T08:05:06.671Z,43.10054499031016
2024-04-01T08:08:05.196Z,43.123302734072226
2024-04-01T08:11:02.784Z,43.62913430098052
2024-04-01T08:14:00.382Z,41.94799466984408
2024-04-01T08:16:57.852Z,42.31234363477732
2024-04-01T08:19:55.452Z,42.182956846590685
2024-04-01T08:22:53.339Z,40.7174156786032
2024-04-01T08:25:51.537Z,40.27399603691392
2024-04-01T08:28:52.092Z,39.48346421877731
2024-04-01T08:31:49.675Z,39.23298176480095
2024-04-01T08:34:48.224Z,39.77349579524344
2024-04-01T08:37:45.760Z,39.762096201906694
2024-04-01T08:40:47.285Z,39.24925680622207
2024-04-01T08:43:47.829Z,37.932668981635494
2024-04-01T08:46:47.415Z,38.71400381524275
2024-04-01T08:49:51.948Z,37.408970833983425
2024-04-01T08:52:54.494Z,37.37924074789065
2024-04-01T08:55:52.052Z,37.76642299124154
2024-04-01T08:58:50.596Z,37.98387163324051
2024-04-01T09:01:48.163Z,39.00406188609782
2024-04-01T09:04:46.730Z,39.25496579485393
2024-04-01T09:07:48.263Z,39.4542155005808
2024-04-01T09:10:46.228Z,39.23725940248338
2024-04-01T09:13:47.346Z,38.78590206919977
2024-04-01T09:16:44.925Z,37.43213025667346
2024-04-01T09:19:44.475Z,39.498590645193495
2024-04-01T09:22:42.026Z,38.47034029118112
2024-04-01T09:25:39.661Z,37.5561291020109
2024-04-01T09:28:37.152Z,38.315795828172675
2024-04-01T09:31:34.706Z,38.00192824280852
2024-04-01T09:34:33.251Z,38.5565536150758
2024-04-01T09:37:30.811Z,37.179164319063496
2024-04-01T09:40:28.376Z,36.365372900238654
2024-04-01T09:43:42.932Z,36.06074604059992
2024-04-01T09:46:45.438Z,35.82815612690006
2024-04-01T09:49:45.334Z,36.29920809902846
2024-04-01T09:56:08.998Z,34.76980215277551
2024-04-01T09:59:36.495Z,34.88078755692082
2024-04-01T10:03:02.030Z,34.50630704120927
2024-04-01T10:06:26.503Z,34.55303498294492
2024-04-01T10:10:05.364Z,32.49146837877616
2024-04-01T10:13:34.411Z,34.08471934196231
2024-04-01T10:16:53.902Z,33.94689618162498
2024-04-01T10:20:05.443Z,33.8574669473966
2024-04-01T10:23:38.931Z,33.54147487433988
2024-04-01T10:27:03.429Z,34.24205851298466
2024-04-01T10:30:41.846Z,34.19886152539644
2024-04-01T10:34:12.294Z,33.75426979589955
2024-04-01T10:37:31.794Z,33.80344876947476
2024-04-01T10:40:46.363Z,32.00338853909374
2024-04-01T10:44:24.807Z,32.56856178809926
2024-04-01T10:47:53.361Z,33.136763144579305
2024-04-01T10:51:14.789Z,32.28213778476233
2024-04-01T10:54:29.305Z,32.92123583406605
2024-04-01T10:57:56.769Z,32.75401417380998
2024-04-01T11:01:32.213Z,32.71980998734114
2024-04-01T11:04:58.714Z,33.13571826588895
2024-04-01T11:08:13.225Z,33.37751630717635
2024-04-01T11:11:32.504Z,32.96086156206622
2024-04-01T11:14:34.280Z,33.79551665463167
2024-04-01T11:17:34.807Z,32.62223372979777
2024-04-01T11:20:47.334Z,31.501922669511757
2024-04-01T11:24:03.858Z,30.838132447446224
2024-04-01T11:27:23.360Z,31.243868914366125
2024-04-01T11:30:35.854Z,30.718367796323314
2024-04-01T11:33:51.401Z,31.078922234452655
2024-04-01T11:37:00.925Z,29.953453474883407
2024-04-01T11:43:11.993Z,29.95831187910092
2024-04-01T11:46:13.566Z,29.796961868399848
2024-04-01T11:49:11.108Z,29.4501335709702
2024-04-01T11:52:13.599Z,29.773613908858746
2024-04-01T11:55:13.201Z,28.993232209853854
2024-04-01T11:58:12.747Z,29.768511042027527
2024-04-01T12:01:11.304Z,29.27417821397658
2024-04-01T12:04:18.829Z,30.11806215810972
2024-04-01T12:07:17.359Z,29.612333410591823
2024-04-01T12:10:15.951Z,27.855330202278527
2024-04-01T12:13:15.505Z,27.18320404852214
2024-04-01T12:16:14.068Z,27.450602703804847
2024-04-01T12:19:20.967Z,27.383527235404426
2024-04-01T12:22:20.099Z,27.575452316021522
2024-04-01T12:25:17.697Z,28.82918971045679
2024-04-01T12:28:17.217Z,28.249568350935508
2024-04-01T12:31:20.570Z,27.4969527036106
2024-04-01T12:34:21.316Z,27.590054573553687
2024-04-01T12:37:23.862Z,27.495660301914423
2024-04-01T12:40:25.425Z,26.48928607165367
2024-04-01T12:43:22.963Z,26.492825248140946
2024-04-01T12:46:20.546Z,24.227103468989164
2024-04-01T12:49:22.067Z,23.959175440555025
2024-04-01T12:52:26.596Z,25.606294701228798
2024-04-01T12:55:34.138Z,24.779048597591235
2024-04-01T12:58:47.698Z,24.97074848626618
2024-04-01T13:01:59.212Z,25.182804136055715
2024-04-01T13:05:13.700Z,25.717870417357588
2024-04-01T13:08:34.235Z,25.136442496968463
2024-04-01T13:11:45.741Z,25.23389950148141
2024-04-01T13:14:59.255Z,26.274843108719214
2024-04-01T13:18:12.776Z,26.932492962967313
2024-04-01T13:21:22.273Z,27.418876166736723
2024-04-01T13:24:28.808Z,27.3529369066841
2024-04-01T13:27:37.354Z,27.145374477441987
2024-04-01T13:30:48.860Z,26.62768576575636
2024-04-01T13:34:02.738Z,26.90756879765844
2024-04-01T13:37:11.921Z,27.278862229575935
2024-04-01T13:40:24.479Z,26.380032788475496
2024-04-01T13:43:36.954Z,26.300024990104024
2024-04-01T13:46:48.497Z,25.63845683734699
2024-04-01T13:50:04.001Z,25.750439842623912
2024-04-01T13:53:24.490Z,26.05485096430169
2024-04-01T13:56:35.196Z,26.92114610804273
2024-04-01T13:59:45.576Z,27.045619360656794
2024-04-01T14:02:54.064Z,27.12560024908821
2024-04-01T14:06:14.588Z,25.218777867938716
2024-04-01T14:09:25.094Z,25.07212912006877
2024-04-01T14:12:32.624Z,25.16726961745718
2024-04-01T14:15:35.221Z,23.960265914037933
2024-04-01T14:18:49.650Z,25.152880027079767
2024-04-01T14:21:47.180Z,25.392360709074467
2024-04-01T14:24:57.752Z,26.38241078237268
2024-04-01T14:27:55.307Z,24.868567299974423
2024-04-01T14:30:52.861Z,23.65617748839943
2024-04-01T14:33:51.409Z,23.290059956505274
2024-04-01T14:36:48.971Z,23.20583469720587
2024-04-01T14:39:52.525Z,24.10793739102755
2024-04-01T14:42:50.085Z,24.04679637313151
2024-04-01T14:45:48.609Z,24.32757409671494
2024-04-01T14:48:47.195Z,27.715743762044852
2024-04-01T14:51:45.757Z,29.236951380222667
2024-04-01T14:54:44.299Z,29.871094840642336
2024-04-01T14:57:43.889Z,30.335121118073957
2024-04-01T15:00:43.395Z,30.22399172896324
2024-04-01T15:03:41.954Z,30.532267356516467
2024-04-01T15:06:39.496Z,30.2803173370353
2024-04-01T15:09:43.061Z,30.281640089194205
2024-04-01T15:12:40.596Z,30.609959657354665
2024-04-01T15:15:40.174Z,30.681907428901386
2024-04-01T15:18:37.708Z,30.586062279541867
2024-04-01T15:21:36.296Z,30.81666090965486
2024-04-01T15:24:34.815Z,30.870724924395798
2024-04-01T15:27:32.348Z,31.20041379867592
2024-04-01T15:30:31.927Z,31.466375021449426
2024-04-01T15:33:30.474Z,31.83613121767653
2024-04-01T15:36:28.039Z,31.665795936480094
2024-04-01T15:39:25.635Z,31.030769341228716
2024-04-01T15:42:23.179Z,30.30982303372583
2024-04-01T15:45:20.710Z,30.1902847920927
2024-04-01T15:48:20.286Z,30.340413038972336
2024-04-01T15:51:18.804Z,30.646125795068354
2024-04-01T15:54:17.378Z,30.6249950789986
2024-04-01T15:57:15.932Z,31.263411334694524
2024-04-01T16:00:19.500Z,31.190919106074062
2024-04-01T16:03:19.024Z,30.4223583276313
2024-04-01T16:06:17.587Z,30.532542352639464
2024-04-01T16:09:16.175Z,30.47673636791051
2024-04-01T16:12:16.659Z,30.386635172481025
2024-04-01T16:15:15.230Z,30.920200433578497
2024-04-01T16:18:14.777Z,31.477552152826657
2024-04-01T16:21:16.321Z,31.46244425039954
2024-04-01T16:24:15.900Z,31.441082216823986
2024-04-01T16:27:19.599Z,31.985828103349984
2024-04-01T16:30:21.982Z,31.913694169486515
2024-04-01T16:33:20.498Z,31.6571235100138
2024-04-01T16:36:34.866Z,31.778847856179322
2024-04-01T16:39:32.591Z,31.36927411051684
2024-04-01T16:42:33.487Z,31.61525305351381
2024-04-01T16:45:32.019Z,30.79765857962037
2024-04-01T16:48:30.244Z,30.73042445125129
2024-04-01T16:51:28.799Z,30.870679847645388
2024-04-01T16:54:29.348Z,30.74627655707057
2024-04-01T16:57:28.906Z,29.83214728996506
2024-04-01T17:00:26.497Z,30.17182452784344
2024-04-01T17:03:24.970Z,30.458003619440795
2024-04-01T17:06:24.559Z,30.544220539500763
2024-04-01T17:09:31.110Z,29.939404053575373
2024-04-01T17:12:29.708Z,30.307001737560267
2024-04-01T17:15:29.194Z,29.93156168679964
2024-04-01T17:18:27.768Z,30.128432383892715
2024-04-01T17:21:27.302Z,30.07246472885274
2024-04-01T17:24:24.863Z,30.439036829473725
2024-04-01T17:27:23.403Z,29.91936942366872
2024-04-01T17:30:22.994Z,29.805961849572444
2024-04-01T17:33:23.537Z,30.90846772226101
2024-04-01T17:36:21.085Z,29.984630467341784
2024-04-01T17:39:28.608Z,30.665560676896067
2024-04-01T17:42:27.214Z,30.643949141523574
2024-04-01T17:45:29.726Z,31.50847632288167
2024-04-01T17:48:31.307Z,31.10009772667634
2024-04-01T17:51:29.815Z,31.82073898411777
2024-04-01T17:54:28.356Z,32.56435509324178
2024-04-01T17:57:25.927Z,32.72569730397972
2024-04-01T18:00:28.511Z,32.53744875661465
2024-04-01T18:03:33.011Z,33.26164104244394
2024-04-01T18:06:42.687Z,33.025248163661715
2024-04-01T18:09:42.078Z,33.425532005267655
2024-04-01T18:12:40.659Z,33.973021607401684
2024-04-01T18:15:38.159Z,34.02543997098028
2024-04-01T18:18:37.706Z,34.64006350300816
2024-04-01T18:21:36.303Z,34.83451936987076
2024-04-01T18:24:34.833Z,35.21532004594279
2024-04-01T18:27:38.362Z,34.36930451518879
2024-04-01T18:30:39.379Z,34.634583125166245
2024-04-01T18:33:42.469Z,34.03736440622531
2024-04-01T18:36:51.493Z,33.906022572944316
2024-04-01T18:39:50.540Z,33.65592986522847
2024-04-01T18:42:54.105Z,33.343033009500786
2024-04-01T18:45:57.639Z,33.2234099290159
2024-04-01T18:49:04.165Z,32.82570334104553
2024-04-01T18:52:09.722Z,33.33692506732204
2024-04-01T18:55:11.236Z,33.24009169649352
2024-04-01T18:58:13.808Z,32.94570117173535
2024-04-01T19:01:20.616Z,33.01361131112514
2024-04-01T19:04:21.879Z,33.385018180613535
2024-04-01T19:07:26.420Z,34.33478290524629
2024-04-01T19:10:28.255Z,33.540150086444505
2024-04-01T19:13:27.536Z,34.193505312453645
2024-04-01T19:16:25.100Z,34.08537113205505
2024-04-01T19:19:28.474Z,33.5235309979936
2024-04-01T19:22:28.154Z,33.6889026987457
2024-04-01T19:25:25.726Z,34.41600864718713
2024-04-01T19:28:23.372Z,34.10964352426917
2024-04-01T19:31:28.852Z,34.41650093940918
2024-04-01T19:34:28.688Z,34.229239290262
2024-04-01T19:37:32.919Z,34.17866654097539
2024-04-01T19:40:35.451Z,34.45088120897422
2024-04-01T19:43:34.034Z,34.26339635983095
2024-04-01T19:46:35.554Z,34.70159125421892
2024-04-01T19:49:33.121Z,34.6569948467349
2024-04-01T19:52:34.956Z,35.479253910316224
2024-04-01T19:55:37.216Z,35.12258407468332
2024-04-01T19:58:38.749Z,35.332498531928415
2024-04-01T20:05:09.796Z,35.37442633205843
2024-04-01T20:08:15.361Z,35.64126209097908
2024-04-01T20:11:17.848Z,34.97173188070121
2024-04-01T20:14:17.401Z,34.14839080617175
2024-04-01T20:17:25.462Z,34.0336575756475
2024-04-01T20:20:32.463Z,33.39196486551576
2024-04-01T20:23:32.031Z,33.220834513291464
2024-04-01T20:26:31.766Z,33.47670366644578
2024-04-01T20:29:36.091Z,33.261433099167526
2024-04-01T20:32:40.939Z,32.82459343459798
2024-04-01T20:35:43.550Z,33.10863789719237
2024-04-01T20:38:41.734Z,33.12059742644667
2024-04-01T20:41:50.625Z,33.4043454902733
2024-04-01T20:44:48.875Z,33.00241158250673
2024-04-01T20:47:48.383Z,33.16769353718629
2024-04-01T20:54:21.895Z,33.526002649727516
2024-04-01T20:57:18.978Z,33.1805664420956
2024-04-01T21:00:29.498Z,33.32248925222238
2024-04-01T21:03:29.016Z,33.22658640406059
2024-04-01T21:06:31.588Z,32.839902602548285
2024-04-01T21:09:34.109Z,32.98687075405188
2024-04-01T21:12:31.667Z,32.367510028750644
2024-04-01T21:15:29.216Z,32.46353267711498
2024-04-01T21:18:27.838Z,32.57306409659388
2024-04-01T21:21:25.375Z,32.88533456209204
2024-04-01T21:24:23.892Z,32.35810531092354
2024-04-01T21:27:25.465Z,32.51179345134101
2024-04-01T21:30:23.992Z,32.813513042552096
2024-04-01T21:33:21.575Z,33.0302001037403
2024-04-01T21:36:19.107Z,33.37809594839813
2024-04-01T21:39:16.686Z,33.71333791545199
2024-04-01T21:42:14.213Z,33.731698628802064
2024-04-01T21:45:12.798Z,33.59007939248995
2024-04-01T21:48:12.336Z,33.979693383222525
2024-04-01T21:51:09.919Z,33.15330394114612
2024-04-01T21:54:07.449Z,33.56111569285512
2024-04-01T21:57:04.991Z,33.2728381865467
2024-04-01T22:00:08.674Z,32.93914184990458
2024-04-01T22:03:08.082Z,33.40420481367895
2024-04-01T22:06:10.132Z,33.30296926067732
2024-04-01T22:09:09.191Z,33.16129087570138
2024-04-01T22:12:07.763Z,32.734927269282686
2024-04-01T22:15:05.286Z,32.26776858070706
2024-04-01T22:18:02.875Z,31.488693226287793
2024-04-01T22:21:01.410Z,30.741470717638933
2024-04-01T22:23:59.976Z,31.409373170194048
2024-04-01T22:26:59.531Z,30.29495785033091
2024-04-01T22:30:00.139Z,30.485691302298015
2024-04-01T22:32:57.697Z,29.602967451736042
2024-04-01T22:35:56.374Z,29.86546896784481
2024-04-01T22:38:53.765Z,30.664053715708476
2024-04-01T22:41:51.305Z,30.472977631400802
2024-04-01T22:44:50.871Z,31.04991226601035
2024-04-01T22:47:49.420Z,31.56970571685195
2024-04-01T22:50:47.955Z,31.679189405221035
2024-04-01T22:53:45.526Z,31.82178595784122
2024-04-01T22:56:43.079Z,31.058819351365422
2024-04-01T22:59:40.611Z,30.847452976622304
2024-04-01T23:02:38.194Z,30.65320333970455
2024-04-01T23:05:36.727Z,30.74315678889015
2024-04-01T23:08:34.315Z,30.721163684782095
2024-04-01T23:11:32.880Z,30.972918019107258
2024-04-01T23:14:33.677Z,31.14994545111446
2024-04-01T23:17:32.951Z,31.30359272674769
2024-04-01T23:20:30.545Z,31.82809507952208
2024-04-01T23:23:30.085Z,32.101558327650636
2024-04-01T23:26:31.963Z,32.357181824238104
2024-04-01T23:29:29.163Z,50.8161823525306
2024-04-01T23:32:26.737Z,76.57259190394876
2024-04-01T23:35:24.290Z,94.37752033231288
2024-04-01T23:38:21.828Z,100
2024-04-01T23:41:19.737Z,100
2024-04-01T23:44:17.965Z,100
2024-04-01T23:47:15.484Z,100
2024-04-01T23:50:13.065Z,100
2024-04-01T23:53:12.738Z,100
2024-04-01T23:56:12.163Z,100
2024-04-01T23:59:10.949Z,100
